Nearby METAR Reports

 

KPAO - Palo Alto, California, USA
Distance from KPAO: NNW 0nm, 0mi
Updated: Wed, 28-Jul-2021 6:47am PDT
Broken
Broken
 Wind from WNW
Wind: WNW 6 mph , 9 km/h
Temperature: 59°F , 15°C
Dew Point: 55°F , 13°C
Humidity: 88%
Barometer: 30.04 inHg , 1017.3 hPa
Clouds: Broken
Visibility: 10 miles , 16 km
Cloud details: Few Clouds 800 ft
Broken 1100 ft
2021/07/28 13:47 KPAO 281347Z 30005KT 10SM FEW008 BKN011 15/13 A3004
KSQL - San Carlos Airpo, California, USA
Distance from KPAO: WNW 7nm, 8mi
Updated: Wed, 28-Jul-2021 6:55am PDT
Clear
Clear
 Wind from calm
Wind: Calm
Temperature: 59°F , 15°C
Dew Point: 54°F , 12°C
Humidity: 82%
Barometer: 30.04 inHg , 1017.3 hPa
Clouds: Clear
Visibility: 10 miles , 16 km
2021/07/28 13:55 KSQL 281355Z AUTO 00000KT 10SM CLR 15/12 A3004 RMK AO2
 
KSJC - San Jose, California, USA
Distance from KPAO: ESE 11nm, 13mi
Updated: Wed, 28-Jul-2021 6:53am PDT
Broken
Broken
 Wind from NNW
Wind: NNW 7 mph , 11 km/h
Temperature: 63°F , 17°C
Dew Point: 57°F , 14°C
Humidity: 83%
Barometer: 30.03 inHg , 1016.9 hPa
Clouds: Broken
Visibility: 10 miles , 16 km
Cloud details: Broken 900 ft
Broken 1100 ft
Broken 10000 ft
2021/07/28 13:53 KSJC 281353Z 34006KT 10SM BKN009 BKN011 BKN100 17/14 A3003 RMK AO2 SLP169 T01670139
KHWD - Hayward, California, USA
Distance from KPAO: N 12nm, 14mi
Updated: Wed, 28-Jul-2021 6:54am PDT
Few Clouds
Few Clouds
 Wind from NNW
Wind: NNW 6 mph , 9 km/h
Temperature: 57°F , 14°C
Dew Point: 55°F , 13°C
Humidity: 94%
Barometer: 30.03 inHg , 1016.9 hPa
Clouds: Few Clouds
Visibility: 10 miles , 16 km
Cloud details: Few Clouds 800 ft
2021/07/28 13:54 KHWD 281354Z 33005KT 10SM FEW008 14/13 A3003 RMK AO2 SLP179 T01440128
 
KSFO - San Francisco, California, USA
Distance from KPAO: NW 16nm, 18mi
Updated: Wed, 28-Jul-2021 5:56am PDT
NOT Current
Few Clouds
Few Clouds
 Wind from WNW
Wind: WNW 10 mph , 17 km/h
Temperature: 55°F , 13°C
Dew Point: 54°F , 12°C
Humidity: 94%
Barometer: 30.02 inHg , 1016.6 hPa
Clouds: Few Clouds
Visibility: 10 miles , 16 km
Cloud details: Few Clouds 200 ft
Few Clouds 600 ft
2021/07/28 12:56 KSFO 281256Z 30009KT 10SM FEW002 FEW006 13/12 A3002 RMK AO2 SLP165 T01330122
KRHV - San Jose/Reid, California, USA
Distance from KPAO: ESE 16nm, 18mi
Updated: Wed, 28-Jul-2021 6:47am PDT
Broken
Broken
 Wind from NW
Wind: NW 5 mph , 7 km/h
Temperature: 63°F , 17°C
Dew Point: 57°F , 14°C
Humidity: 83%
Barometer: 30.04 inHg , 1017.3 hPa
Clouds: Broken
Visibility: 10 miles , 16 km
Cloud details: Broken 1000 ft
2021/07/28 13:47 KRHV 281347Z 31004KT 10SM BKN010 17/14 A3004
 
KOAK - Oakland, California, USA
Distance from KPAO: NNW 16nm, 18mi
Updated: Wed, 28-Jul-2021 6:53am PDT
Broken
Broken
 Wind from NNW
Wind: NNW 7 mph , 11 km/h
Temperature: 57°F , 14°C
Dew Point: 55°F , 13°C
Humidity: 94%
Barometer: 30.05 inHg , 1017.6 hPa
Clouds: Broken
Visibility: 10 miles , 16 km
Cloud details: Broken 600 ft
2021/07/28 13:53 KOAK 281353Z 33006KT 10SM BKN006 14/13 A3005 RMK AO2 SLP173 T01440128
KHAF - Half Moon Bay, California, USA
Distance from KPAO: W 19nm, 22mi
Updated: Fri, 09-Jul-2021 7:35am PDT
NOT Current
Light rain, Clear
Light rain, Clear
 
Temperature: 55°F , 13°C
Dew Point: 54°F , 12°C
Humidity: 94%
Barometer: 29.91 inHg , 1012.9 hPa
Summary: Light rain
Clouds: Clear
Visibility: 4 miles , 6 km
2021/07/09 14:35 KHAF 091435Z AUTO 4SM -RA CLR 13/12 A2991 RMK AO2
 
KLVK - Livermore, California, USA
Distance from KPAO: NE 20nm, 23mi
Updated: Wed, 28-Jul-2021 6:53am PDT
Clear
Clear
 Wind from W
Wind: W 3 mph , 6 km/h
Temperature: 64°F , 18°C
Dew Point: 52°F , 11°C
Humidity: 64%
Barometer: 30.02 inHg , 1016.6 hPa
Clouds: Clear
Visibility: 10 miles , 16 km
2021/07/28 13:53 KLVK 281353Z 28003KT 10SM CLR 18/11 A3002 RMK AO2 SLP160 T01780111
KC83 - Byron, California, USA
Distance from KPAO: NE 32nm, 40mi
Updated: Wed, 28-Jul-2021 7:15am PDT
Clear
Clear
 Wind from calm
Wind: Calm
Temperature: 68°F , 20°C
Dew Point: 55°F , 13°C
Humidity: 64%
Barometer: 29.99 inHg , 1015.6 hPa
Clouds: Clear
Visibility: 9 miles , 14 km
2021/07/28 14:15 KC83 281415Z AUTO 00000KT 9SM CLR 20/13 A2999 RMK AO2
 
KCCR - Concord, California, USA
Distance from KPAO: N 33nm, 37mi
Updated: Wed, 28-Jul-2021 6:53am PDT
Clear
Clear
 Wind from WNW
Wind: WNW 3 mph , 6 km/h
Temperature: 63°F , 17°C
Dew Point: 54°F , 12°C
Humidity: 73%
Barometer: 30.01 inHg , 1016.3 hPa
Clouds: Clear
Visibility: 10 miles , 16 km
2021/07/28 13:53 KCCR 281353Z AUTO 29003KT 10SM CLR 17/12 A3001 RMK AO2 SLP150 T01720122
KWVI - Watsonville, California, USA
Distance from KPAO: SSE 35nm, 40mi
Updated: Wed, 28-Jul-2021 6:53am PDT
Overcast
Overcast
 Wind from calm
Wind: Calm
Temperature: 57°F , 14°C
Dew Point: 55°F , 13°C
Humidity: 94%
Barometer: 30.05 inHg , 1017.6 hPa
Clouds: Overcast
Visibility: 10 miles , 16 km
Cloud details: Overcast 500 ft
2021/07/28 13:53 KWVI 281353Z AUTO 00000KT 10SM OVC005 14/13 A3005 RMK AO2 SLP177 T01440133
 
KAPC - Napa, California, USA
Distance from KPAO: N 46nm, 53mi
Updated: Wed, 28-Jul-2021 6:54am PDT
Clear
Clear
 Wind from W
Wind: W 5 mph , 7 km/h
Temperature: 55°F , 13°C
Dew Point: 54°F , 12°C
Humidity: 94%
Barometer: 30.03 inHg , 1016.9 hPa
Clouds: Clear
Visibility: 10 miles , 16 km
2021/07/28 13:54 KAPC 281354Z 26004KT 10SM CLR 13/12 A3003 RMK AO2 SLP159 T01330122
KDVO - Novato/Gnoss Fld, California, USA
Distance from KPAO: NNW 46nm, 53mi
Updated: Wed, 28-Jul-2021 7:15am PDT
Clear
Clear
 Wind from NNW
Wind: NNW 8 mph , 13 km/h
Temperature: 57°F , 14°C
Dew Point: 55°F , 13°C
Humidity: 94%
Barometer: 30.03 inHg , 1016.9 hPa
Clouds: Clear
Visibility: 10 miles , 16 km
2021/07/28 14:15 KDVO 281415Z AUTO 34007KT 10SM CLR 14/13 A3003 RMK AO2
 
KCVH - Hollister Muni, California, USA
Distance from KPAO: SE 48nm, 55mi
Updated: Wed, 28-Jul-2021 7:15am PDT
Clear
Clear
 Wind from calm
Wind: Calm
Temperature: 57°F , 14°C
Dew Point: 55°F , 13°C
Humidity: 94%
Barometer: 30.06 inHg , 1017.9 hPa
Clouds: Clear
Visibility: 7 miles , 11 km
2021/07/28 14:15 KCVH 281415Z AUTO 00000KT 7SM CLR 14/13 A3006 RMK A01
KSUU - Travis Afb/Fairf, California, USA
Distance from KPAO: ENE 49nm, 56mi
Updated: Wed, 28-Jul-2021 6:58am PDT
Clear
Clear
 Wind from SW
Wind: SW 9 mph , 15 km/h
Temperature: 63°F , 17°C
Dew Point: 54°F , 12°C
Humidity: 73%
Barometer: 29.98 inHg , 1015.2 hPa
Clouds: Clear
Visibility: 10 miles , 16 km
2021/07/28 13:58 KSUU 281358Z AUTO 23008KT 10SM CLR 17/12 A2998 RMK AO2 SLP158 T01710120 $
 
KSCK - Stockton, California, USA
Distance from KPAO: ENE 49nm, 56mi
Updated: Wed, 28-Jul-2021 6:55am PDT
Clear
Clear
 Wind from NNW
Wind: NNW 6 mph , 9 km/h
Temperature: 66°F , 19°C
Dew Point: 55°F , 13°C
Humidity: 68%
Barometer: 29.98 inHg , 1015.2 hPa
Clouds: Clear
Visibility: 10 miles , 16 km
2021/07/28 13:55 KSCK 281355Z 33005KT 10SM CLR 19/13 A2998 RMK AO2 SLP151 T01940128
KO69 - Petaluma, California, USA
Distance from KPAO: W 53nm, 61mi
Updated: Wed, 28-Jul-2021 7:15am PDT
Mist, Overcast
Mist, Overcast
 Wind from NW
Wind: NW 5 mph , 7 km/h
Temperature: 55°F , 13°C
Dew Point: 54°F , 12°C
Humidity: 94%
Barometer: 30.04 inHg , 1017.3 hPa
Summary: Mist
Clouds: Overcast
Visibility: 6 miles , 10 km
Cloud details: Overcast 300 ft
2021/07/28 14:15 KO69 281415Z AUTO 32004KT 6SM BR OVC003 13/12 A3004 RMK A01
 
KSNS - Salinas, California, USA
Distance from KPAO: SSE 54nm, 62mi
Updated: Wed, 28-Jul-2021 6:53am PDT
Mist, Overcast
Mist, Overcast
 
Temperature: 57°F , 14°C
Dew Point: 55°F , 13°C
Humidity: 94%
Barometer: 30.05 inHg , 1017.6 hPa
Summary: Mist
Clouds: Overcast
Visibility: 4 miles , 6 km
Cloud details: Overcast 400 ft
2021/07/28 13:53 KSNS 281353Z 4SM BR OVC004 14/13 A3005 RMK AO2 SLP186 T01390128 $
KMRY - Monterey, California, USA
Distance from KPAO: SSE 54nm, 62mi
Updated: Wed, 28-Jul-2021 6:54am PDT
Mist, Overcast
Mist, Overcast
 Wind from calm
Wind: Calm
Temperature: 57°F , 14°C
Dew Point: 55°F , 13°C
Humidity: 94%
Barometer: 30.06 inHg , 1017.9 hPa
Summary: Mist
Clouds: Overcast
Visibility: 4 miles , 6 km
Cloud details: Overcast 200 ft
2021/07/28 13:54 KMRY 281354Z 00000KT 4SM BR OVC002 14/13 A3006 RMK AO2 SLP190 T01440128
 
KVCB - Vacaville, California, USA
Distance from KPAO: NE 55nm, 63mi
Updated: Wed, 28-Jul-2021 6:53am PDT
Clear
Clear
 Wind from calm
Wind: Calm
Temperature: 70°F , 21°C
Dew Point: 52°F , 11°C
Humidity: 53%
Barometer: 29.99 inHg , 1015.6 hPa
Clouds: Clear
Visibility: 10 miles , 16 km
2021/07/28 13:53 KVCB 281353Z AUTO 00000KT 10SM CLR 21/11 A2999 RMK AO2 SLP152 T02060106
KMOD - Modesto, California, USA
Distance from KPAO: E 56nm, 64mi
Updated: Wed, 28-Jul-2021 6:53am PDT
Clear
Clear
 Wind from NNW
Wind: NNW 7 mph , 11 km/h
Temperature: 70°F , 21°C
Dew Point: 54°F , 12°C
Humidity: 57%
Barometer: 29.97 inHg , 1014.9 hPa
Clouds: Clear
Visibility: 10 miles , 16 km
2021/07/28 13:53 KMOD 281353Z 34006KT 10SM CLR 21/12 A2997 RMK AO2 SLP146 T02060117
 
KEDU - Davis, California, USA
Distance from KPAO: NE 66nm, 76mi
Updated: Wed, 23-Jun-2021 6:45am PDT
NOT Current
Clear
Clear
 Wind from calm
Wind: Calm
Temperature: 59°F , 15°C
Dew Point: 52°F , 11°C
Humidity: 77%
Barometer: 29.87 inHg , 1011.5 hPa
Clouds: Clear
Visibility: 10 miles , 16 km
2021/06/23 13:45 KEDU 231345Z AUTO 00000KT 10SM CLR 15/11 A2987 RMK AO1
KSAC - Sacramento, California, USA
Distance from KPAO: NE 70nm, 81mi
Updated: Wed, 28-Jul-2021 6:53am PDT
Clear
Clear
 Wind from calm
Wind: Calm
Temperature: 64°F , 18°C
Dew Point: 55°F , 13°C
Humidity: 73%
Barometer: 29.97 inHg , 1014.9 hPa
Clouds: Clear
Visibility: 10 miles , 16 km
2021/07/28 13:53 KSAC 281353Z 00000KT 10SM CLR 18/13 A2997 RMK AO2 SLP149 T01780133
 
KSTS - Santa Rosa, California, USA
Distance from KPAO: NW 71nm, 82mi
Updated: Wed, 28-Jul-2021 6:53am PDT
Patches of fog, Broken
Patches of fog, Broken
 Wind from S
Wind: S 3 mph , 6 km/h
Temperature: 54°F , 12°C
Dew Point: 54°F , 12°C
Humidity: 100%
Barometer: 30.04 inHg , 1017.3 hPa
Summary: Patches of Fog
Clouds: Broken
Visibility: 9 miles , 14 km
Cloud details: Broken 500 ft
2021/07/28 13:53 KSTS 281353Z 19003KT 9SM BCFG BKN005 12/12 A3004 RMK AO2 SLP165 T01170117
KMHR - Mather Field, California, USA
Distance from KPAO: ENE 76nm, 88mi
Updated: Wed, 28-Jul-2021 6:45am PDT
Sky Clear
Sky Clear
 Wind from calm
Wind: Calm
Temperature: 63°F , 17°C
Dew Point: 54°F , 12°C
Humidity: 73%
Barometer: 29.97 inHg , 1014.9 hPa
Clouds: Sky Clear
Visibility: 10 miles , 16 km
2021/07/28 13:45 KMHR 281345Z 00000KT 10SM SKC 17/12 A2997
 
KSMF - Sacramento/Metro, California, USA
Distance from KPAO: NE 78nm, 90mi
Updated: Wed, 28-Jul-2021 6:53am PDT
Few Clouds
Few Clouds
 Wind from calm
Wind: Calm
Temperature: 66°F , 19°C
Dew Point: 55°F , 13°C
Humidity: 68%
Barometer: 29.96 inHg , 1014.6 hPa
Clouds: Few Clouds
Visibility: 10 miles , 16 km
Cloud details: Few Clouds 22000 ft
2021/07/28 13:53 KSMF 281353Z 00000KT 10SM FEW220 19/13 A2996 RMK AO2 SLP146 T01890128
KMCC - Mcclellan Afb, California, USA
Distance from KPAO: NE 80nm, 92mi
Updated: Wed, 28-Jul-2021 7:15am PDT

 Wind from calm
Wind: Calm
Temperature: 68°F , 20°C
Dew Point: 55°F , 13°C
Humidity: 64%
Barometer: 29.98 inHg , 1015.2 hPa
Visibility: 10 miles , 16 km
2021/07/28 14:15 KMCC 281415Z AUTO 00000KT 10SM 20/13 A2998 RMK AO2
 
KNKX - Miramar MCAS (Joe Foss Field) Airport, California, USA
Distance from KPAO: SE 368nm, 423mi
Updated: Wed, 28-Jul-2021 7:11am PDT
Mist, Overcast
Mist, Overcast
 Wind from NW
Wind: NW 6 mph , 9 km/h
Temperature: 64°F , 18°C
Dew Point: 63°F , 17°C
Humidity: 94%
Barometer: 30.02 inHg , 1016.6 hPa
Summary: Mist
Clouds: Overcast
Visibility: 2 1/2 miles , 4 km
Cloud details: Overcast 200 ft
2021/07/28 14:11 KNKX 281411Z 32005KT 2 1/2SM BR OVC002 18/17 A3002 RMK AO2 T01780172
KMYF - Montgomery-Gibbs Executive Airport, California, USA
Distance from KPAO: SE 371nm, 427mi
Updated: Wed, 28-Jul-2021 6:53am PDT
Mist, Broken
Mist, Broken
 Wind from NNW
Wind: NNW 5 mph , 7 km/h
Temperature: 64°F , 18°C
Dew Point: 63°F , 17°C
Humidity: 94%
Barometer: 30.02 inHg , 1016.6 hPa
Summary: Mist
Clouds: Broken
Visibility: 5 miles , 8 km
Cloud details: Broken 400 ft
2021/07/28 13:53 KMYF 281353Z 34004KT 5SM BR BKN004 18/17 A3002 RMK AO2 SLP161 T01830167